Time;durP1;ratioP1;P1;durP2;ratioP2;P2;SDS_P1;SDS_P2;PMS_P1;PMS_P2;Temp;Humidity;BMP_temperature;BMP_pressure;BME280_temperature;BME280_humidity;BME280_pressure;Samples;Min_cycle;Max_cycle;Signal;HPM_P1;HPM_P2
2023/06/27 00:00:43;;;;;;;3.50;2.20;;;18.70;90.50;;;;;;4963554;29;20211;-76
2023/06/27 00:03:12;;;;;;;5.07;2.13;;;18.60;90.60;;;;;;4965416;28;20208;-75
2023/06/27 00:05:44;;;;;;;5.13;2.17;;;18.50;91.30;;;;;;4968635;28;20231;-73
2023/06/27 00:08:14;;;;;;;6.23;2.23;;;18.40;91.10;;;;;;4963449;28;20250;-75
2023/06/27 00:10:42;;;;;;;4.97;2.00;;;18.40;91.50;;;;;;4968236;29;20232;-74
2023/06/27 00:13:16;;;;;;;4.23;2.07;;;18.40;91.10;;;;;;4962929;29;20219;-74
2023/06/27 00:15:44;;;;;;;4.60;2.20;;;18.30;91.50;;;;;;4960114;29;20224;-74
2023/06/27 00:20:56;;;;;;;3.37;2.03;;;18.30;91.40;;;;;;4954273;29;20240;-77
2023/06/27 00:23:33;;;;;;;4.00;2.30;;;18.30;92.20;;;;;;4954478;29;20200;-73
2023/06/27 00:26:06;;;;;;;4.93;2.33;;;18.30;91.60;;;;;;4972489;29;20227;-74
2023/06/27 00:28:39;;;;;;;4.63;2.27;;;18.20;91.40;;;;;;4974897;28;20225;-73
2023/06/27 00:31:16;;;;;;;4.93;2.37;;;18.20;92.10;;;;;;4967448;29;20211;-74
2023/06/27 00:33:45;;;;;;;6.10;2.13;;;18.10;92.00;;;;;;4957516;29;20208;-76
2023/06/27 00:36:23;;;;;;;5.57;2.40;;;18.10;93.00;;;;;;4946439;29;20240;-75
2023/06/27 00:39:03;;;;;;;5.40;2.50;;;18.10;92.80;;;;;;4943311;29;20223;-73
2023/06/27 00:41:33;;;;;;;4.57;2.37;;;18.00;93.70;;;;;;4950342;29;20732;-74
2023/06/27 00:44:01;;;;;;;5.00;2.10;;;18.00;93.30;;;;;;4962203;28;20208;-77
2023/06/27 00:46:37;;;;;;;4.47;2.23;;;18.10;93.60;;;;;;4962854;29;20227;-75
2023/06/27 00:49:20;;;;;;;6.83;2.20;;;18.10;93.80;;;;;;4966624;28;20207;-74
2023/06/27 00:52:03;;;;;;;5.27;2.30;;;18.00;93.80;;;;;;4947916;29;20625;-74
2023/06/27 00:54:34;;;;;;;5.30;2.30;;;18.00;93.70;;;;;;4938003;29;20226;-74
2023/06/27 00:57:03;;;;;;;4.13;2.00;;;18.00;93.80;;;;;;4938241;29;20208;-75
2023/06/27 00:59:31;;;;;;;7.20;2.63;;;17.90;93.90;;;;;;4936799;29;20268;-77
2023/06/27 01:02:00;;;;;;;4.17;2.37;;;17.90;94.60;;;;;;4936983;29;20247;-74
2023/06/27 01:04:28;;;;;;;7.77;2.70;;;17.80;94.30;;;;;;4937312;29;20563;-74
2023/06/27 01:07:02;;;;;;;4.30;2.53;;;17.80;94.50;;;;;;4937043;29;20252;-74
2023/06/27 01:09:35;;;;;;;8.50;2.63;;;17.70;95.50;;;;;;4936979;29;20266;-78
2023/06/27 01:12:10;;;;;;;6.40;2.50;;;17.70;95.90;;;;;;4936379;29;20251;-75
2023/06/27 01:14:41;;;;;;;5.90;2.73;;;17.60;96.20;;;;;;4936894;29;20276;-75
2023/06/27 01:17:10;;;;;;;6.43;2.60;;;17.50;96.60;;;;;;4936975;29;20212;-75
2023/06/27 01:19:43;;;;;;;6.23;2.43;;;17.50;96.70;;;;;;4936745;29;20212;-77
2023/06/27 01:22:17;;;;;;;6.03;2.80;;;17.30;96.60;;;;;;4938573;28;20213;-74
2023/06/27 01:24:47;;;;;;;8.53;2.90;;;17.30;96.90;;;;;;4960833;28;20208;-75
2023/06/27 01:27:15;;;;;;;4.13;2.40;;;17.20;97.80;;;;;;4936462;29;20232;-73
2023/06/27 01:29:44;;;;;;;3.83;2.40;;;17.20;98.50;;;;;;4936620;29;20216;-74
2023/06/27 01:32:19;;;;;;;6.70;2.70;;;17.10;98.70;;;;;;4936937;29;20650;-75
2023/06/27 01:34:58;;;;;;;5.03;2.67;;;17.00;98.60;;;;;;4935167;29;20342;-75
2023/06/27 01:37:30;;;;;;;6.03;2.77;;;17.00;99.50;;;;;;4936351;29;20256;-76
2023/06/27 01:40:03;;;;;;;4.40;2.47;;;17.00;99.60;;;;;;4936506;29;20303;-78
2023/06/27 01:42:35;;;;;;;6.33;2.67;;;17.00;99.90;;;;;;4936007;29;20216;-76
2023/06/27 01:45:05;;;;;;;5.53;2.40;;;17.00;99.90;;;;;;4936391;29;20203;-73
2023/06/27 01:47:36;;;;;;;4.43;2.60;;;16.90;99.90;;;;;;4936018;29;20761;-73
2023/06/27 01:50:04;;;;;;;5.13;2.40;;;16.90;99.90;;;;;;4936701;29;20204;-75
2023/06/27 01:52:32;;;;;;;5.47;2.50;;;16.90;99.90;;;;;;4935923;29;20288;-77
2023/06/27 01:55:02;;;;;;;6.87;2.60;;;16.90;99.90;;;;;;4936084;29;20247;-74
2023/06/27 01:57:30;;;;;;;5.73;2.50;;;16.90;99.90;;;;;;4936542;29;20220;-78
2023/06/27 01:59:58;;;;;;;5.93;2.40;;;16.80;99.90;;;;;;4936289;29;20212;-75
2023/06/27 02:02:26;;;;;;;4.93;2.30;;;16.90;99.90;;;;;;4935652;29;20204;-75
2023/06/27 02:04:55;;;;;;;8.13;2.30;;;16.80;99.90;;;;;;4948595;29;20200;-77
2023/06/27 02:07:23;;;;;;;6.87;2.50;;;16.80;99.90;;;;;;4937171;29;20727;-74
2023/06/27 02:09:51;;;;;;;3.93;2.20;;;16.80;99.90;;;;;;4936207;29;20240;-78
2023/06/27 02:12:21;;;;;;;5.07;2.40;;;16.70;99.90;;;;;;4935669;29;20279;-78
2023/06/27 02:14:49;;;;;;;6.33;2.50;;;16.70;99.90;;;;;;4935821;28;20750;-76
2023/06/27 02:17:17;;;;;;;7.60;2.40;;;16.60;99.90;;;;;;4935826;29;20236;-75
2023/06/27 02:19:45;;;;;;;4.87;2.30;;;16.50;99.90;;;;;;4935592;29;20575;-73
2023/06/27 02:22:13;;;;;;;7.20;2.47;;;16.50;99.90;;;;;;4960792;28;20215;-75
2023/06/27 02:24:41;;;;;;;4.27;2.20;;;16.50;99.90;;;;;;4973839;28;20203;-75
2023/06/27 02:27:09;;;;;;;6.57;2.43;;;16.40;99.90;;;;;;4962448;28;20228;-73
2023/06/27 02:29:39;;;;;;;7.73;2.60;;;16.30;99.90;;;;;;4935194;29;20409;-79
2023/06/27 02:32:08;;;;;;;6.30;2.50;;;16.30;99.90;;;;;;4943401;29;20277;-76
2023/06/27 02:34:36;;;;;;;5.73;2.20;;;16.30;99.90;;;;;;4954126;28;20674;-80
2023/06/27 02:37:04;;;;;;;4.10;2.13;;;16.20;99.90;;;;;;4949392;28;20594;-76
2023/06/27 02:39:32;;;;;;;5.73;2.40;;;16.20;99.90;;;;;;4935833;29;20208;-74
2023/06/27 02:42:01;;;;;;;5.93;2.37;;;16.10;99.90;;;;;;4934832;29;20208;-75
2023/06/27 02:44:29;;;;;;;7.27;2.40;;;16.10;99.90;;;;;;4935087;29;20214;-73
2023/06/27 02:46:58;;;;;;;5.20;2.43;;;16.10;99.90;;;;;;4935183;29;20306;-75
2023/06/27 02:49:26;;;;;;;7.87;2.50;;;16.10;99.90;;;;;;4935056;29;20264;-77
2023/06/27 02:51:54;;;;;;;7.87;2.57;;;16.10;99.90;;;;;;4935042;29;20213;-73
2023/06/27 02:54:25;;;;;;;5.77;2.50;;;16.10;99.90;;;;;;4934457;29;20263;-78
2023/06/27 02:56:53;;;;;;;5.13;2.30;;;16.10;99.90;;;;;;4935305;29;20230;-73
2023/06/27 02:59:22;;;;;;;7.37;2.50;;;16.10;99.90;;;;;;4935127;29;20220;-74
2023/06/27 03:01:50;;;;;;;7.20;2.73;;;16.10;99.90;;;;;;4935095;29;20216;-75
2023/06/27 03:04:22;;;;;;;5.37;2.37;;;16.10;99.90;;;;;;4934991;29;20240;-75
2023/06/27 03:06:51;;;;;;;4.77;2.40;;;16.20;99.90;;;;;;4935434;29;20331;-75
2023/06/27 03:09:20;;;;;;;7.00;2.60;;;16.20;99.90;;;;;;4935206;29;20267;-76
2023/06/27 03:11:48;;;;;;;4.97;2.37;;;16.20;99.90;;;;;;4934735;29;20220;-77
2023/06/27 03:14:18;;;;;;;5.27;2.03;;;16.20;99.90;;;;;;4934946;29;20224;-76
2023/06/27 03:16:47;;;;;;;5.93;2.50;;;16.20;99.90;;;;;;4935440;29;20276;-74
2023/06/27 03:19:15;;;;;;;9.27;2.47;;;16.20;99.90;;;;;;4934781;28;20216;-79
2023/06/27 03:21:55;;;;;;;4.87;2.50;;;16.20;99.90;;;;;;4973099;28;20195;-78
2023/06/27 03:24:23;;;;;;;5.63;2.33;;;16.20;99.90;;;;;;4973054;28;20685;-77
2023/06/27 03:26:51;;;;;;;4.87;2.50;;;16.20;99.90;;;;;;4973128;28;20234;-73
2023/06/27 03:29:20;;;;;;;3.93;2.20;;;16.20;99.90;;;;;;4938920;28;20642;-75
2023/06/27 03:31:48;;;;;;;5.83;2.37;;;16.20;99.90;;;;;;4934937;29;20212;-76
2023/06/27 03:34:16;;;;;;;5.90;2.20;;;16.20;99.90;;;;;;4935046;29;20670;-74
2023/06/27 03:36:44;;;;;;;5.57;2.30;;;16.20;99.90;;;;;;4934628;29;20212;-73
2023/06/27 03:39:14;;;;;;;6.00;2.77;;;16.20;99.90;;;;;;4934973;29;20212;-74
2023/06/27 03:41:42;;;;;;;9.20;2.50;;;16.30;99.90;;;;;;4936625;29;20227;-78
2023/06/27 03:44:10;;;;;;;6.33;2.40;;;16.30;99.90;;;;;;4938608;29;20271;-76
2023/06/27 03:46:38;;;;;;;6.67;2.67;;;16.30;99.90;;;;;;4949761;29;20294;-74
2023/06/27 03:49:06;;;;;;;3.53;2.30;;;16.20;99.90;;;;;;4958093;29;20258;-74
2023/06/27 03:51:35;;;;;;;8.37;2.97;;;16.30;99.90;;;;;;4957769;29;20682;-74
2023/06/27 03:54:06;;;;;;;5.30;2.40;;;16.30;99.90;;;;;;4957279;29;20250;-73
2023/06/27 03:56:36;;;;;;;6.13;2.40;;;16.20;99.90;;;;;;4939460;29;20251;-74
2023/06/27 03:59:04;;;;;;;6.33;2.50;;;16.20;99.90;;;;;;4938746;29;20211;-73
2023/06/27 04:01:32;;;;;;;6.67;2.50;;;16.20;99.90;;;;;;4938668;29;20216;-76
2023/06/27 04:04:00;;;;;;;4.63;2.30;;;16.30;99.90;;;;;;4938134;29;20678;-77
2023/06/27 04:06:28;;;;;;;4.53;2.60;;;16.30;99.90;;;;;;4938790;29;20220;-78
2023/06/27 04:08:57;;;;;;;4.33;2.20;;;16.30;99.90;;;;;;4938617;29;20247;-74
2023/06/27 04:11:25;;;;;;;6.17;2.40;;;16.30;99.90;;;;;;4938489;29;20267;-74
2023/06/27 04:13:56;;;;;;;7.37;2.70;;;16.30;99.90;;;;;;4938138;29;20300;-76
2023/06/27 04:16:24;;;;;;;4.63;2.33;;;16.30;99.90;;;;;;4938657;29;20212;-75
2023/06/27 04:18:52;;;;;;;6.00;2.40;;;16.30;99.90;;;;;;4954913;28;20199;-75
2023/06/27 04:21:22;;;;;;;4.50;2.40;;;16.30;99.90;;;;;;4976970;28;20557;-78
2023/06/27 04:23:53;;;;;;;8.43;2.47;;;16.40;99.90;;;;;;4940412;28;20208;-74
2023/06/27 04:26:22;;;;;;;10.30;2.70;;;16.30;99.90;;;;;;4953057;28;20323;-73
2023/06/27 04:28:50;;;;;;;7.43;2.53;;;16.40;99.90;;;;;;4957425;29;20228;-75
2023/06/27 04:31:21;;;;;;;6.20;2.30;;;16.40;99.90;;;;;;4957545;29;20211;-74
2023/06/27 04:33:49;;;;;;;5.83;2.60;;;16.40;99.90;;;;;;4939536;29;20287;-74
2023/06/27 04:36:20;;;;;;;4.77;2.20;;;16.40;99.90;;;;;;4938054;29;20212;-74
2023/06/27 04:38:48;;;;;;;8.03;2.20;;;16.40;99.90;;;;;;4937905;29;20214;-73
2023/06/27 04:41:16;;;;;;;6.93;2.30;;;16.50;99.90;;;;;;4937488;29;20662;-74
2023/06/27 04:43:44;;;;;;;6.23;2.10;;;16.50;99.90;;;;;;4937957;29;20566;-75
2023/06/27 04:46:12;;;;;;;7.87;2.80;;;16.50;99.90;;;;;;4937477;29;20575;-74
2023/06/27 04:48:42;;;;;;;6.63;2.50;;;16.50;99.90;;;;;;4937626;29;20228;-74
2023/06/27 04:51:10;;;;;;;7.33;2.43;;;16.60;99.90;;;;;;4938138;29;20220;-74
2023/06/27 04:53:40;;;;;;;8.90;2.67;;;16.70;99.90;;;;;;4936593;29;20251;-75
2023/06/27 04:56:08;;;;;;;6.30;2.47;;;16.80;99.90;;;;;;4949622;28;20220;-76
2023/06/27 04:58:36;;;;;;;7.63;2.50;;;16.80;99.90;;;;;;4939953;29;20588;-75
2023/06/27 05:01:04;;;;;;;5.50;2.50;;;16.80;99.90;;;;;;4939476;29;20243;-76
2023/06/27 05:03:32;;;;;;;7.03;2.40;;;16.80;99.90;;;;;;4938376;29;20283;-76
2023/06/27 05:06:02;;;;;;;4.07;2.23;;;16.80;99.90;;;;;;4944706;29;20212;-75
2023/06/27 05:08:31;;;;;;;5.40;2.10;;;16.80;99.90;;;;;;4948518;29;20693;-76
2023/06/27 05:10:59;;;;;;;11.07;2.40;;;16.80;99.90;;;;;;4944874;29;20670;-74
2023/06/27 05:13:27;;;;;;;4.50;2.00;;;16.80;99.90;;;;;;4948975;29;20291;-73
2023/06/27 05:15:56;;;;;;;7.73;2.00;;;16.80;99.90;;;;;;4946536;28;20286;-74
2023/06/27 05:18:26;;;;;;;4.40;2.43;;;16.80;99.90;;;;;;4947095;28;20209;-79
2023/06/27 05:20:54;;;;;;;5.20;2.00;;;16.80;99.90;;;;;;4946228;28;20694;-75
2023/06/27 05:23:24;;;;;;;4.97;2.30;;;16.80;99.90;;;;;;4944165;28;20752;-73
2023/06/27 05:25:52;;;;;;;6.60;2.50;;;16.90;99.90;;;;;;4944085;29;20216;-74
2023/06/27 05:28:20;;;;;;;3.77;2.30;;;16.90;99.90;;;;;;4936896;29;20239;-79
2023/06/27 05:30:48;;;;;;;5.70;2.40;;;16.90;99.90;;;;;;4936891;29;20212;-75
2023/06/27 05:33:16;;;;;;;6.47;2.37;;;16.90;99.90;;;;;;4936280;29;20303;-74
2023/06/27 05:35:45;;;;;;;5.83;2.50;;;16.90;99.90;;;;;;4936848;29;20212;-75
2023/06/27 05:38:13;;;;;;;7.73;2.20;;;16.90;99.90;;;;;;4936312;29;20216;-75
2023/06/27 05:40:43;;;;;;;3.47;1.90;;;16.90;99.90;;;;;;4936407;29;20220;-74
2023/06/27 05:43:11;;;;;;;6.27;2.47;;;16.90;99.90;;;;;;4937189;29;20220;-75
2023/06/27 05:45:39;;;;;;;7.53;2.20;;;17.00;99.90;;;;;;4936513;29;20212;-74
2023/06/27 05:48:07;;;;;;;8.67;2.27;;;17.00;99.90;;;;;;4937305;29;20208;-75
2023/06/27 05:50:36;;;;;;;6.43;2.27;;;17.20;99.90;;;;;;4936810;29;20223;-75
2023/06/27 05:53:04;;;;;;;5.23;2.43;;;17.20;99.90;;;;;;4936276;29;20268;-75
2023/06/27 05:55:33;;;;;;;6.70;2.67;;;17.30;99.90;;;;;;4936394;29;20624;-77
2023/06/27 05:58:02;;;;;;;5.13;2.10;;;17.30;99.90;;;;;;4935859;29;20291;-75
2023/06/27 06:00:31;;;;;;;7.70;2.20;;;17.30;99.90;;;;;;4936317;29;20581;-74
2023/06/27 06:02:59;;;;;;;4.43;2.37;;;17.40;99.90;;;;;;4935872;29;20216;-75
2023/06/27 06:05:28;;;;;;;10.77;2.80;;;17.40;99.90;;;;;;4935200;29;20303;-76
2023/06/27 06:07:56;;;;;;;5.97;2.50;;;17.40;99.90;;;;;;4935567;29;20227;-75
2023/06/27 06:10:24;;;;;;;5.50;2.50;;;17.30;99.90;;;;;;4936378;29;20271;-75
2023/06/27 06:12:52;;;;;;;8.57;2.20;;;17.30;99.90;;;;;;4936101;29;20658;-79
2023/06/27 06:15:32;;;;;;;6.33;2.03;;;17.30;99.90;;;;;;4946053;28;20213;-77
2023/06/27 06:18:00;;;;;;;7.13;2.43;;;17.30;99.90;;;;;;4951579;28;20199;-75
2023/06/27 06:20:31;;;;;;;6.13;2.37;;;17.40;99.90;;;;;;4956949;28;20281;-75
2023/06/27 06:23:00;;;;;;;5.37;2.17;;;17.30;99.90;;;;;;4955400;28;20215;-77
2023/06/27 06:25:28;;;;;;;6.80;2.20;;;17.30;99.90;;;;;;4955492;28;20211;-77
2023/06/27 06:27:56;;;;;;;6.70;2.10;;;17.40;99.90;;;;;;4937776;28;20220;-77
2023/06/27 06:30:26;;;;;;;7.37;2.50;;;17.40;99.90;;;;;;4935906;29;20287;-78
2023/06/27 06:32:54;;;;;;;4.60;2.17;;;17.30;99.90;;;;;;4937072;29;20224;-76
2023/06/27 06:35:22;;;;;;;4.33;2.20;;;17.10;99.90;;;;;;4937257;29;20299;-76
2023/06/27 06:37:50;;;;;;;6.37;2.23;;;17.20;99.90;;;;;;4936239;29;20263;-75
2023/06/27 06:40:19;;;;;;;5.07;2.23;;;17.20;99.90;;;;;;4938034;29;20208;-75
2023/06/27 06:42:47;;;;;;;5.70;2.40;;;17.20;99.90;;;;;;4936489;29;20212;-78
2023/06/27 06:45:17;;;;;;;4.13;2.20;;;17.10;99.90;;;;;;4955358;28;20215;-75
2023/06/27 06:47:46;;;;;;;9.33;2.73;;;17.00;99.90;;;;;;4953518;28;20247;-75
2023/06/27 06:50:15;;;;;;;5.50;2.23;;;17.00;99.90;;;;;;4955071;28;20315;-75
2023/06/27 06:52:44;;;;;;;6.40;2.20;;;17.10;99.90;;;;;;4949294;28;20212;-77
2023/06/27 06:55:12;;;;;;;6.03;2.13;;;17.20;99.90;;;;;;4934914;29;20258;-76
2023/06/27 06:57:40;;;;;;;6.13;2.23;;;17.30;99.90;;;;;;4935469;29;20240;-76
2023/06/27 07:00:10;;;;;;;6.20;1.93;;;17.30;99.90;;;;;;4936087;29;20234;-79
2023/06/27 07:02:38;;;;;;;4.60;2.00;;;17.50;99.90;;;;;;4940076;29;20615;-77
2023/06/27 07:05:08;;;;;;;8.77;2.40;;;17.60;99.90;;;;;;4933568;29;20216;-77
2023/06/27 07:07:36;;;;;;;5.80;2.17;;;17.70;99.90;;;;;;4934847;29;20200;-77
2023/06/27 07:10:06;;;;;;;7.00;2.10;;;17.70;99.90;;;;;;4933529;29;20287;-78
2023/06/27 07:12:35;;;;;;;4.07;2.10;;;18.00;99.90;;;;;;4932409;29;20208;-77
2023/06/27 07:15:03;;;;;;;3.93;2.03;;;18.30;99.90;;;;;;4933328;28;20307;-77
2023/06/27 07:17:32;;;;;;;5.13;2.07;;;18.60;99.90;;;;;;4944421;28;20239;-77
2023/06/27 07:20:01;;;;;;;4.17;2.13;;;19.00;99.60;;;;;;4953765;28;20207;-79
2023/06/27 07:22:31;;;;;;;5.60;2.10;;;19.30;97.30;;;;;;4953660;28;20239;-78
2023/06/27 07:24:59;;;;;;;3.83;2.07;;;19.60;96.90;;;;;;4953760;28;20262;-80
2023/06/27 07:27:27;;;;;;;5.83;2.10;;;19.80;96.00;;;;;;4953846;28;20681;-77
2023/06/27 07:29:56;;;;;;;4.17;2.20;;;20.20;94.60;;;;;;4941792;28;20654;-79
2023/06/27 07:32:24;;;;;;;5.57;2.00;;;20.20;93.10;;;;;;4934168;29;20572;-78
2023/06/27 07:34:52;;;;;;;4.60;2.23;;;20.10;92.80;;;;;;4934808;29;20220;-79
2023/06/27 07:37:21;;;;;;;3.57;2.20;;;19.50;94.60;;;;;;4934570;29;20712;-78
2023/06/27 07:39:50;;;;;;;4.57;2.13;;;19.30;95.50;;;;;;4934666;28;20677;-77
2023/06/27 07:42:18;;;;;;;7.20;2.40;;;19.40;95.10;;;;;;4934298;29;20220;-78
2023/06/27 07:44:46;;;;;;;3.67;2.23;;;19.30;96.30;;;;;;4934484;29;20212;-77
2023/06/27 07:47:14;;;;;;;7.03;2.40;;;19.50;96.80;;;;;;4934187;28;20208;-77
2023/06/27 07:49:42;;;;;;;5.07;1.87;;;19.60;96.20;;;;;;4934439;29;20235;-77
2023/06/27 07:52:11;;;;;;;7.47;2.10;;;20.00;95.10;;;;;;4933860;29;20734;-77
2023/06/27 07:54:39;;;;;;;5.13;2.13;;;20.50;93.70;;;;;;4934214;29;20287;-75
2023/06/27 07:57:09;;;;;;;6.20;2.40;;;21.30;94.90;;;;;;4942625;28;20215;-78
2023/06/27 07:59:37;;;;;;;8.67;2.47;;;22.50;91.30;;;;;;4954389;28;20581;-77
2023/06/27 08:02:05;;;;;;;4.57;2.00;;;23.40;82.80;;;;;;4954585;28;20219;-77
2023/06/27 08:04:34;;;;;;;5.53;2.20;;;23.80;74.30;;;;;;4954582;28;20291;-77
2023/06/27 08:07:02;;;;;;;3.33;1.77;;;23.80;71.40;;;;;;4936158;28;20227;-77
2023/06/27 08:09:30;;;;;;;5.17;2.00;;;24.30;68.20;;;;;;4942983;29;20232;-77
2023/06/27 08:11:58;;;;;;;5.40;2.10;;;24.00;67.70;;;;;;4936812;28;20208;-76
2023/06/27 08:14:31;;;;;;;5.10;2.00;;;23.60;69.30;;;;;;4957276;28;20661;-77
2023/06/27 08:16:59;;;;;;;6.47;1.70;;;23.20;69.40;;;;;;4938368;29;20220;-77
2023/06/27 08:19:28;;;;;;;5.13;2.10;;;23.20;68.50;;;;;;4953269;28;20673;-76
2023/06/27 08:21:56;;;;;;;4.03;2.00;;;23.30;67.50;;;;;;4945590;29;20820;-76
2023/06/27 08:24:24;;;;;;;2.87;1.40;;;24.30;62.90;;;;;;4953786;28;20262;-75
2023/06/27 08:26:55;;;;;;;2.60;1.60;;;24.90;57.90;;;;;;4952078;28;20239;-78
2023/06/27 08:29:25;;;;;;;5.50;1.80;;;25.60;56.10;;;;;;4951022;28;20546;-78
2023/06/27 08:31:59;;;;;;;5.27;1.90;;;25.60;53.30;;;;;;4952899;28;20227;-80
2023/06/27 08:34:28;;;;;;;4.43;1.70;;;25.00;54.80;;;;;;4956547;28;20215;-77
2023/06/27 08:36:56;;;;;;;5.10;1.80;;;25.30;55.10;;;;;;4941560;28;20218;-79
2023/06/27 08:39:25;;;;;;;4.70;1.92;;;26.10;52.50;;;;;;4939370;29;20282;-79
2023/06/27 08:41:53;;;;;;;3.25;2.00;;;27.30;51.40;;;;;;4942199;29;20621;-80
2023/06/27 08:44:21;;;;;;;4.78;1.80;;;27.90;46.40;;;;;;4944016;29;20212;-81
2023/06/27 08:46:50;;;;;;;3.25;1.83;;;28.10;45.50;;;;;;4949694;29;20275;-81
2023/06/27 08:49:22;;;;;;;5.90;1.80;;;28.50;41.50;;;;;;4938778;29;20208;-80
2023/06/27 08:51:51;;;;;;;6.20;1.92;;;28.60;41.10;;;;;;4937020;29;20705;-82
2023/06/27 08:54:24;;;;;;;6.28;1.90;;;28.50;39.00;;;;;;4949959;29;20223;-79
2023/06/27 08:56:53;;;;;;;4.18;1.65;;;27.60;39.40;;;;;;4953408;28;20306;-80
2023/06/27 08:59:25;;;;;;;3.97;1.75;;;28.30;40.50;;;;;;4954530;28;20665;-81
2023/06/27 09:01:54;;;;;;;3.75;1.90;;;28.80;37.10;;;;;;4958078;28;20239;-84
2023/06/27 09:04:24;;;;;;;3.88;1.60;;;28.20;39.70;;;;;;4942323;28;20208;-80
2023/06/27 09:06:53;;;;;;;12.20;2.40;;;28.70;40.50;;;;;;4936932;29;20200;-81
2023/06/27 09:09:22;;;;;;;6.85;1.70;;;28.80;39.50;;;;;;4936779;29;20303;-80
2023/06/27 09:11:51;;;;;;;5.65;2.08;;;29.20;36.00;;;;;;4947714;28;20230;-81
2023/06/27 09:14:20;;;;;;;3.15;1.70;;;29.50;33.80;;;;;;4939538;29;20279;-82
2023/06/27 09:16:48;;;;;;;3.85;1.58;;;30.10;36.30;;;;;;4943217;29;20211;-80
2023/06/27 09:19:19;;;;;;;5.28;2.20;;;30.70;32.30;;;;;;4948773;29;20204;-80
2023/06/27 09:21:50;;;;;;;8.40;2.13;;;30.10;31.10;;;;;;4949128;29;20203;-82
2023/06/27 09:24:23;;;;;;;3.33;1.65;;;29.50;33.70;;;;;;4945396;29;20214;-82
2023/06/27 09:26:52;;;;;;;5.63;2.30;;;29.50;32.00;;;;;;4947623;28;20208;-80
2023/06/27 09:29:20;;;;;;;4.65;1.80;;;29.60;34.10;;;;;;4952628;28;20238;-78
2023/06/27 09:31:48;;;;;;;4.50;1.70;;;29.50;33.90;;;;;;4955356;28;20322;-79
2023/06/27 09:34:17;;;;;;;4.30;1.83;;;29.10;33.80;;;;;;4956216;28;20222;-80
2023/06/27 09:36:45;;;;;;;4.20;1.90;;;27.60;33.30;;;;;;4964665;28;20275;-78
2023/06/27 09:39:18;;;;;;;6.07;2.00;;;26.50;36.70;;;;;;4936781;29;20239;-76
2023/06/27 09:41:48;;;;;;;4.32;2.10;;;26.00;38.20;;;;;;4936420;29;20678;-78
2023/06/27 09:44:18;;;;;;;4.47;2.07;;;25.40;39.10;;;;;;4948562;29;20596;-75
2023/06/27 09:46:47;;;;;;;5.23;1.77;;;24.80;41.90;;;;;;4945462;29;20216;-76
2023/06/27 09:49:16;;;;;;;5.77;1.87;;;24.60;41.40;;;;;;4942788;29;20219;-78
2023/06/27 09:51:45;;;;;;;6.43;2.03;;;24.20;43.10;;;;;;4951647;29;20291;-78
2023/06/27 09:54:14;;;;;;;5.80;1.90;;;24.10;44.30;;;;;;4936345;29;20745;-77
2023/06/27 09:56:49;;;;;;;5.87;2.00;;;24.00;43.20;;;;;;4936413;29;20208;-78
2023/06/27 09:59:18;;;;;;;4.80;2.23;;;23.60;44.20;;;;;;4975040;28;20266;-75
2023/06/27 10:01:51;;;;;;;4.37;2.03;;;23.40;45.20;;;;;;4954774;29;20290;-76
2023/06/27 10:04:20;;;;;;;4.53;1.93;;;23.30;45.90;;;;;;4950319;28;20299;-76
2023/06/27 10:07:07;;;;;;;4.40;2.03;;;23.20;46.00;;;;;;4936435;29;20201;-74
2023/06/27 10:09:36;;;;;;;4.60;1.90;;;22.60;46.40;;;;;;4939340;28;20220;-78
2023/06/27 10:12:08;;;;;;;3.87;1.80;;;22.60;49.90;;;;;;4961762;28;20232;-76
2023/06/27 10:14:36;;;;;;;6.60;1.93;;;22.80;48.10;;;;;;4935655;29;20230;-77
2023/06/27 10:17:06;;;;;;;3.47;1.73;;;22.80;48.40;;;;;;4936735;29;20291;-76
2023/06/27 10:19:37;;;;;;;5.13;2.10;;;23.00;50.20;;;;;;4935973;29;20445;-76
2023/06/27 10:22:10;;;;;;;3.40;2.00;;;22.80;48.50;;;;;;4935864;29;20582;-76
2023/06/27 10:24:41;;;;;;;4.97;2.07;;;22.80;49.10;;;;;;4936079;29;20694;-79
2023/06/27 10:27:13;;;;;;;6.10;1.87;;;23.80;50.00;;;;;;4936355;28;20215;-77
2023/06/27 10:29:42;;;;;;;5.33;2.23;;;24.40;48.00;;;;;;4936371;29;20291;-78
2023/06/27 10:32:10;;;;;;;4.27;2.00;;;24.10;46.70;;;;;;4936095;29;20283;-77
2023/06/27 10:34:43;;;;;;;3.70;1.93;;;25.10;46.30;;;;;;4936657;29;20215;-75
2023/06/27 10:37:12;;;;;;;4.57;2.10;;;24.40;44.40;;;;;;4936447;29;20212;-78
2023/06/27 10:39:41;;;;;;;3.57;1.97;;;24.30;46.40;;;;;;4936136;29;20216;-77
2023/06/27 10:42:29;;;;;;;4.47;1.97;;;24.00;47.00;;;;;;4938317;29;20209;-77
2023/06/27 10:45:08;;;;;;;5.33;1.97;;;24.40;47.90;;;;;;4941447;29;20217;-77
2023/06/27 10:47:39;;;;;;;6.37;2.13;;;24.60;44.60;;;;;;4937781;29;20215;-78
2023/06/27 10:50:10;;;;;;;5.33;2.03;;;25.00;45.20;;;;;;4935864;29;20298;-78
2023/06/27 10:52:39;;;;;;;5.47;2.30;;;25.40;44.30;;;;;;4935864;29;20271;-76
2023/06/27 10:55:21;;;;;;;4.80;1.90;;;25.90;44.80;;;;;;4934583;29;20224;-77
2023/06/27 10:57:56;;;;;;;3.97;2.07;;;25.80;42.30;;;;;;4952126;28;20211;-78
2023/06/27 11:00:30;;;;;;;7.00;1.70;;;25.90;43.30;;;;;;4958741;28;20213;-79
2023/06/27 11:03:01;;;;;;;2.80;1.70;;;26.00;46.00;;;;;;4954964;28;20223;-78
2023/06/27 11:05:38;;;;;;;7.37;2.20;;;26.00;43.60;;;;;;4940042;29;20272;-78
2023/06/27 11:08:10;;;;;;;4.87;2.03;;;26.00;42.70;;;;;;4941514;28;20215;-77
2023/06/27 11:10:48;;;;;;;6.47;2.20;;;24.80;44.10;;;;;;4956387;28;20305;-76
2023/06/27 11:13:22;;;;;;;7.27;2.07;;;24.20;44.40;;;;;;4947070;28;20250;-76
2023/06/27 11:15:53;;;;;;;7.87;2.07;;;23.50;46.70;;;;;;4935873;29;20211;-75
2023/06/27 11:18:25;;;;;;;6.27;2.13;;;23.20;46.90;;;;;;4934984;28;20220;-75
2023/06/27 11:20:54;;;;;;;5.60;2.40;;;23.50;47.60;;;;;;4945328;29;20207;-76
2023/06/27 11:23:24;;;;;;;5.10;2.60;;;24.20;47.70;;;;;;4953379;28;20212;-74
2023/06/27 11:25:54;;;;;;;6.40;1.90;;;24.80;48.90;;;;;;4953844;28;20211;-79
2023/06/27 11:28:24;;;;;;;4.23;2.10;;;25.00;45.50;;;;;;4946173;28;20255;-77
2023/06/27 11:30:59;;;;;;;5.57;1.90;;;25.80;45.60;;;;;;4935612;29;20223;-76
2023/06/27 11:33:28;;;;;;;5.73;1.93;;;25.60;45.20;;;;;;4935455;29;20234;-77
2023/06/27 11:35:59;;;;;;;5.20;2.20;;;25.10;44.40;;;;;;4936226;29;20250;-77
2023/06/27 11:38:29;;;;;;;5.20;1.93;;;25.20;45.60;;;;;;4936295;29;20295;-77
2023/06/27 11:40:58;;;;;;;4.67;1.90;;;24.50;46.40;;;;;;4937775;29;20216;-77
2023/06/27 11:43:27;;;;;;;7.53;2.23;;;24.40;47.00;;;;;;4939688;29;20212;-77
2023/06/27 11:45:57;;;;;;;4.90;2.20;;;24.20;47.40;;;;;;4937921;29;20215;-79
2023/06/27 11:48:25;;;;;;;3.87;2.10;;;23.70;46.80;;;;;;4937991;29;20242;-77
2023/06/27 11:51:05;;;;;;;7.03;2.33;;;23.50;49.20;;;;;;4935330;29;20247;-74
2023/06/27 11:53:35;;;;;;;4.43;2.30;;;23.20;48.30;;;;;;4935199;29;20216;-75
2023/06/27 11:56:07;;;;;;;2.50;1.70;;;23.10;50.10;;;;;;4935091;29;20312;-76
2023/06/27 11:58:56;;;;;;;5.97;2.30;;;24.00;48.70;;;;;;4941496;28;20617;-74
2023/06/27 12:01:25;;;;;;;5.77;1.93;;;24.00;46.50;;;;;;4934995;29;20583;-76
2023/06/27 12:03:54;;;;;;;5.17;2.20;;;24.40;46.20;;;;;;4947458;29;20203;-76
2023/06/27 12:06:26;;;;;;;9.60;2.30;;;24.40;46.20;;;;;;4952131;29;20681;-76
2023/06/27 12:08:55;;;;;;;4.57;2.00;;;24.90;48.10;;;;;;4953911;28;20629;-74
2023/06/27 12:11:28;;;;;;;5.03;1.93;;;24.60;44.80;;;;;;4952532;28;20227;-75
2023/06/27 12:13:57;;;;;;;6.30;2.27;;;24.60;45.10;;;;;;4954131;28;20223;-75
2023/06/27 12:16:27;;;;;;;5.63;2.10;;;24.60;48.00;;;;;;4957954;28;20230;-76
2023/06/27 12:19:03;;;;;;;6.03;2.20;;;24.70;45.30;;;;;;4957003;28;20204;-77
2023/06/27 12:21:32;;;;;;;3.53;1.80;;;25.10;45.60;;;;;;4954716;29;20302;-75
2023/06/27 12:24:00;;;;;;;4.80;2.00;;;24.40;45.50;;;;;;4955350;29;20200;-75
2023/06/27 12:26:28;;;;;;;7.60;2.37;;;24.40;46.60;;;;;;4956661;28;20576;-77
2023/06/27 12:28:59;;;;;;;3.53;1.57;;;24.40;43.80;;;;;;4949884;28;20216;-75
2023/06/27 12:31:27;;;;;;;4.80;2.20;;;24.10;46.70;;;;;;4955920;28;20210;-76
2023/06/27 12:33:58;;;;;;;3.70;2.00;;;24.10;46.20;;;;;;4958016;28;20211;-75
2023/06/27 12:36:26;;;;;;;7.03;2.20;;;23.50;46.30;;;;;;4957017;28;20459;-79
2023/06/27 12:38:54;;;;;;;3.87;1.90;;;23.80;47.10;;;;;;4954955;29;20212;-76
2023/06/27 12:41:23;;;;;;;6.50;2.30;;;23.40;47.50;;;;;;4958559;28;20545;-75
2023/06/27 12:43:52;;;;;;;5.60;1.97;;;23.60;47.70;;;;;;4957601;28;20235;-75
2023/06/27 12:46:21;;;;;;;5.10;2.23;;;23.20;48.50;;;;;;4957784;28;20211;-76
2023/06/27 12:48:50;;;;;;;3.97;2.00;;;23.00;47.30;;;;;;4956999;29;20243;-75
2023/06/27 12:51:20;;;;;;;5.50;2.00;;;22.80;48.50;;;;;;4957686;28;20219;-76
2023/06/27 12:53:49;;;;;;;4.87;1.90;;;22.80;48.10;;;;;;4955655;28;20422;-77
2023/06/27 12:56:17;;;;;;;3.60;2.00;;;22.90;49.10;;;;;;4951633;28;20290;-76
2023/06/27 12:58:47;;;;;;;6.43;2.10;;;22.90;49.30;;;;;;4961129;28;20223;-76
2023/06/27 13:01:21;;;;;;;4.90;2.23;;;23.10;49.80;;;;;;4942975;28;20219;-75